Time;durP1;ratioP1;P1;durP2;ratioP2;P2;SDS_P1;SDS_P2;PMS_P1;PMS_P2;Temp;Humidity;BMP_temperature;BMP_pressure;BME280_temperature;BME280_humidity;BME280_pressure;Samples;Min_cycle;Max_cycle;Signal;HPM_P1;HPM_P2
2023/03/29 00:02:12;;;;;;;5.05;2.45;;;;;;;7.43;100.00;101564.44;5182521;28;20469;-77
2023/03/29 00:04:43;;;;;;;5.28;2.20;;;;;;;7.42;100.00;101573.19;5184808;28;20030;-77
2023/03/29 00:07:15;;;;;;;6.80;2.60;;;;;;;7.44;100.00;101573.09;5181866;28;20100;-77
2023/03/29 00:09:46;;;;;;;5.25;2.53;;;;;;;7.41;100.00;101568.06;5177497;28;20053;-77
2023/03/29 00:12:17;;;;;;;4.68;2.20;;;;;;;7.42;100.00;101567.97;5177200;28;20095;-77
2023/03/29 00:14:49;;;;;;;3.85;2.17;;;;;;;7.40;100.00;101562.03;5179898;28;20031;-77
2023/03/29 00:17:20;;;;;;;4.88;2.42;;;;;;;7.43;100.00;101561.84;5179824;28;20038;-77
2023/03/29 00:19:52;;;;;;;4.38;2.20;;;;;;;7.47;100.00;101558.13;5179558;28;20065;-77
2023/03/29 00:22:24;;;;;;;4.88;2.55;;;;;;;7.42;100.00;101546.28;5181014;28;20391;-77
2023/03/29 00:24:55;;;;;;;4.83;2.30;;;;;;;7.48;100.00;101548.53;5185050;28;20034;-77
2023/03/29 00:27:28;;;;;;;4.70;2.50;;;;;;;7.49;100.00;101551.03;5188606;28;20023;-77
2023/03/29 00:29:59;;;;;;;5.20;2.10;;;;;;;7.53;100.00;101554.28;5177641;28;20031;-77
2023/03/29 00:32:32;;;;;;;5.05;2.10;;;;;;;7.47;100.00;101545.06;5179181;28;20030;-77
2023/03/29 00:35:05;;;;;;;4.65;2.50;;;;;;;7.45;100.00;101546.09;5184587;28;20019;-78
2023/03/29 00:37:37;;;;;;;2.90;2.00;;;;;;;7.51;100.00;101551.78;5185501;28;20034;-77
2023/03/29 00:40:10;;;;;;;6.43;2.42;;;;;;;7.51;100.00;101546.56;5183124;28;20069;-77
2023/03/29 00:42:45;;;;;;;;;;;;;;;8.05;100.00;101546.69;5184810;28;20520;-77
2023/03/29 00:45:26;;;;;;;3.92;2.17;;;;;;;7.62;100.00;101538.09;5183242;28;20275;-77
2023/03/29 00:48:01;;;;;;;4.25;2.45;;;;;;;7.59;100.00;101545.28;5183165;28;20098;-77
2023/03/29 00:50:40;;;;;;;6.25;2.25;;;;;;;7.68;100.00;101555.13;5184670;28;20515;-77
2023/03/29 00:53:16;;;;;;;3.95;1.98;;;;;;;7.58;100.00;101554.88;5184806;28;20015;-77
2023/03/29 00:55:51;;;;;;;4.47;2.40;;;;;;;7.63;100.00;101533.72;5179640;28;20054;-77
2023/03/29 00:58:34;;;;;;;7.03;2.47;;;;;;;7.65;100.00;101519.66;5182230;28;20037;-78
2023/03/29 01:01:10;;;;;;;3.83;2.28;;;;;;;7.59;100.00;101530.47;5182817;28;20121;-77
2023/03/29 01:03:47;;;;;;;5.53;2.20;;;;;;;7.64;100.00;101520.56;5182615;28;20405;-77
2023/03/29 01:06:23;;;;;;;3.75;2.30;;;;;;;7.63;100.00;101528.50;5184585;28;20410;-77
2023/03/29 01:09:01;;;;;;;5.68;2.40;;;;;;;7.67;100.00;101516.94;5183150;28;20432;-77
2023/03/29 01:11:46;;;;;;;5.07;2.42;;;;;;;7.74;100.00;101511.25;5183847;28;20035;-77
2023/03/29 01:14:25;;;;;;;6.22;2.30;;;;;;;7.65;100.00;101506.63;5183539;28;20446;-77
2023/03/29 01:16:56;;;;;;;5.68;2.38;;;;;;;7.61;100.00;101509.47;5181550;28;20033;-77
2023/03/29 01:19:33;;;;;;;3.58;2.10;;;;;;;7.66;100.00;101510.06;5181752;28;20023;-77
2023/03/29 01:22:27;;;;;;;4.60;2.38;;;;;;;7.88;100.00;101513.00;5184184;28;20058;-76
2023/03/29 01:25:25;;;;;;;;;;;;;;;8.32;100.00;101511.09;5183572;28;20035;-77
2023/03/29 01:28:02;;;;;;;7.28;2.30;;;;;;;7.79;100.00;101501.34;5186956;28;20390;-77
2023/03/29 01:30:47;;;;;;;4.35;2.30;;;;;;;7.83;100.00;101495.94;5185120;28;20105;-77
2023/03/29 01:33:24;;;;;;;5.50;2.67;;;;;;;7.86;100.00;101493.16;5183256;28;20070;-77
2023/03/29 01:36:13;;;;;;;5.78;2.30;;;;;;;7.80;100.00;101491.75;5185426;28;20026;-77
2023/03/29 01:38:58;;;;;;;5.90;2.58;;;;;;;7.75;100.00;101491.22;5195211;28;20126;-76
2023/03/29 01:41:41;;;;;;;3.92;2.25;;;;;;;7.94;100.00;101489.13;5181736;28;20026;-77
2023/03/29 01:44:36;;;;;;;3.88;2.53;;;;;;;8.20;100.00;101482.25;5201895;28;20030;-77
2023/03/29 01:47:36;;;;;;;4.10;2.28;;;;;;;8.09;100.00;101479.47;5187892;28;20527;-77
2023/03/29 01:50:16;;;;;;;4.20;2.40;;;;;;;8.03;100.00;101475.50;5183577;28;20517;-76
2023/03/29 01:53:00;;;;;;;4.93;2.40;;;;;;;8.00;100.00;101464.44;5187244;28;20033;-77
2023/03/29 01:55:37;;;;;;;5.38;2.35;;;;;;;7.96;100.00;101469.00;5181603;28;20140;-76
2023/03/29 01:58:11;;;;;;;4.55;2.10;;;;;;;7.91;100.00;101455.41;5191093;28;20027;-77
2023/03/29 02:00:44;;;;;;;4.45;2.20;;;;;;;7.84;100.00;101451.53;5185852;28;20397;-76
2023/03/29 02:03:17;;;;;;;6.15;2.20;;;;;;;7.93;100.00;101457.94;5187064;28;20034;-76
2023/03/29 02:05:50;;;;;;;5.32;2.28;;;;;;;7.92;100.00;101454.47;5184818;28;20097;-76
2023/03/29 02:08:22;;;;;;;5.07;2.28;;;;;;;7.96;100.00;101449.91;5184836;28;20061;-78
2023/03/29 02:10:54;;;;;;;4.40;1.85;;;;;;;7.84;100.00;101433.28;5182822;28;20138;-77
2023/03/29 02:13:26;;;;;;;5.10;2.45;;;;;;;7.95;100.00;101443.81;5183750;28;20048;-77
2023/03/29 02:16:00;;;;;;;5.30;2.10;;;;;;;7.91;100.00;101431.06;5183638;28;20380;-78
2023/03/29 02:18:34;;;;;;;6.95;2.47;;;;;;;8.02;100.00;101439.88;5186879;28;20031;-76
2023/03/29 02:21:07;;;;;;;3.78;1.92;;;;;;;8.00;100.00;101439.16;5182294;28;20037;-77
2023/03/29 02:23:44;;;;;;;3.75;1.98;;;;;;;8.10;100.00;101430.72;5186586;28;20393;-77
2023/03/29 02:26:16;;;;;;;4.85;2.20;;;;;;;8.08;100.00;101427.41;5183071;28;20433;-77
2023/03/29 02:28:48;;;;;;;5.95;2.22;;;;;;;8.07;100.00;101418.75;5183661;28;20496;-77
2023/03/29 02:31:23;;;;;;;4.80;2.20;;;;;;;8.12;100.00;101436.69;5186715;28;20116;-77
2023/03/29 02:34:18;;;;;;;3.25;1.98;;;;;;;8.26;100.00;101428.81;5184756;28;20054;-77
2023/03/29 02:37:11;;;;;;;6.65;2.22;;;;;;;8.38;100.00;101407.16;5183871;28;20113;-77
2023/03/29 02:39:43;;;;;;;;;;;;;;;8.84;100.00;101414.47;5181448;28;20477;-77
2023/03/29 02:42:19;;;;;;;4.40;2.47;;;;;;;8.16;100.00;101417.28;5182593;28;19914;-77
2023/03/29 02:44:55;;;;;;;6.20;2.30;;;;;;;8.18;100.00;101411.03;5184335;28;20026;-77
2023/03/29 02:47:31;;;;;;;4.97;2.03;;;;;;;8.28;100.00;101409.47;5183209;28;20026;-77
2023/03/29 02:50:03;;;;;;;4.35;1.80;;;;;;;8.19;100.00;101394.44;5185553;28;20054;-77
2023/03/29 02:52:40;;;;;;;5.10;2.22;;;;;;;8.28;100.00;101392.97;5184186;28;20055;-76
2023/03/29 02:55:16;;;;;;;3.35;1.90;;;;;;;8.28;100.00;101388.59;5193625;28;20031;-77
2023/03/29 02:57:47;;;;;;;8.35;2.40;;;;;;;8.26;100.00;101387.03;5182105;28;20027;-76
2023/03/29 03:00:18;;;;;;;4.95;1.83;;;;;;;8.34;99.53;101395.19;5186300;28;20037;-77
2023/03/29 03:02:50;;;;;;;4.90;2.42;;;;;;;8.25;99.35;101380.97;5184432;28;20031;-76
2023/03/29 03:05:22;;;;;;;4.35;2.22;;;;;;;8.27;100.00;101376.50;5185429;28;20366;-77
2023/03/29 03:07:54;;;;;;;3.72;1.95;;;;;;;8.30;98.42;101383.28;5178357;28;20057;-76
2023/03/29 03:10:25;;;;;;;2.90;1.77;;;;;;;8.39;99.12;101395.75;5181357;28;20026;-76
2023/03/29 03:12:56;;;;;;;3.70;1.60;;;;;;;8.38;98.16;101390.66;5186973;28;20018;-76
2023/03/29 03:15:28;;;;;;;6.05;2.03;;;;;;;8.39;98.71;101395.75;5180863;28;20034;-76
2023/03/29 03:17:59;;;;;;;4.82;2.10;;;;;;;8.39;99.79;101384.47;5185278;28;20015;-76
2023/03/29 03:20:30;;;;;;;5.38;1.85;;;;;;;8.43;98.06;101384.16;5183218;28;20365;-77
2023/03/29 03:23:02;;;;;;;3.55;1.88;;;;;;;8.39;98.02;101372.25;5186689;28;20029;-77
2023/03/29 03:25:34;;;;;;;3.05;1.77;;;;;;;8.33;97.33;101366.56;5183149;28;20084;-76
2023/03/29 03:28:05;;;;;;;3.45;1.83;;;;;;;8.31;97.22;101364.06;5184976;28;20121;-76
2023/03/29 03:30:37;;;;;;;4.82;2.15;;;;;;;8.40;97.47;101375.69;5181992;28;20101;-77
2023/03/29 03:33:08;;;;;;;4.63;1.85;;;;;;;8.31;97.18;101358.84;5186134;28;20038;-76
2023/03/29 03:35:41;;;;;;;4.25;1.88;;;;;;;8.35;98.18;101367.31;5184132;28;20049;-76
2023/03/29 03:38:12;;;;;;;4.60;2.13;;;;;;;8.34;97.53;101369.09;5179429;28;20105;-77
2023/03/29 03:40:44;;;;;;;4.53;1.98;;;;;;;8.39;97.86;101374.03;5181855;28;20030;-76
2023/03/29 03:43:15;;;;;;;5.63;2.17;;;;;;;8.39;97.37;101371.41;5182658;28;20030;-76
2023/03/29 03:45:46;;;;;;;4.65;2.17;;;;;;;8.40;97.13;101371.31;5186828;28;20117;-77
2023/03/29 03:48:17;;;;;;;7.82;2.13;;;;;;;8.40;96.92;101373.91;5184653;28;20345;-76
2023/03/29 03:50:54;;;;;;;2.95;1.90;;;;;;;8.48;97.91;101381.22;5185743;28;20030;-76
2023/03/29 03:53:26;;;;;;;3.35;2.30;;;;;;;8.37;97.51;101376.75;5184101;28;20033;-77
2023/03/29 03:55:57;;;;;;;4.93;2.40;;;;;;;8.42;97.15;101381.66;5180819;28;20038;-77
2023/03/29 03:58:28;;;;;;;4.00;1.95;;;;;;;8.35;96.76;101373.38;5186573;28;20030;-77
2023/03/29 04:01:00;;;;;;;3.50;2.08;;;;;;;8.41;96.67;101367.78;5185037;28;20026;-77
2023/03/29 04:03:31;;;;;;;4.80;2.25;;;;;;;8.42;96.01;101364.22;5179358;28;20031;-77
2023/03/29 04:06:03;;;;;;;4.43;1.70;;;;;;;8.50;95.99;101367.16;5182413;28;20109;-77
2023/03/29 04:08:34;;;;;;;4.95;2.00;;;;;;;8.45;96.53;101352.75;5186124;28;20582;-77
2023/03/29 04:11:06;;;;;;;5.78;2.25;;;;;;;8.48;95.91;101360.34;5183829;28;20030;-77
2023/03/29 04:13:37;;;;;;;6.35;2.78;;;;;;;8.44;95.71;101359.72;5184076;28;20031;-76
2023/03/29 04:16:09;;;;;;;5.10;2.10;;;;;;;8.46;96.15;101362.25;5180697;28;20093;-77
2023/03/29 04:18:40;;;;;;;4.57;2.45;;;;;;;8.51;95.02;101357.53;5182888;28;20027;-77
2023/03/29 04:21:11;;;;;;;5.75;2.38;;;;;;;8.52;95.14;101353.97;5184097;28;20038;-77
2023/03/29 04:23:45;;;;;;;4.63;2.42;;;;;;;8.50;95.57;101356.69;5180260;28;20456;-77
2023/03/29 04:26:16;;;;;;;6.45;2.20;;;;;;;8.54;95.47;101349.50;5181446;28;20113;-77
2023/03/29 04:28:48;;;;;;;7.05;2.80;;;;;;;8.59;94.07;101349.19;5182677;28;20105;-77
2023/03/29 04:31:19;;;;;;;6.03;2.20;;;;;;;8.54;95.33;101344.28;5180748;28;20113;-77
2023/03/29 04:33:51;;;;;;;4.30;2.33;;;;;;;8.48;95.96;101342.91;5184599;28;20030;-77
2023/03/29 04:36:23;;;;;;;6.65;2.45;;;;;;;8.53;95.32;101353.06;5181268;28;20037;-77
2023/03/29 04:38:55;;;;;;;5.18;2.38;;;;;;;8.60;95.38;101345.63;5181242;28;20027;-77
2023/03/29 04:41:27;;;;;;;5.43;2.20;;;;;;;8.57;95.17;101341.47;5183772;28;20386;-77
2023/03/29 04:43:58;;;;;;;5.20;2.67;;;;;;;8.60;94.03;101343.88;5183024;28;20499;-77
2023/03/29 04:46:31;;;;;;;7.57;2.42;;;;;;;8.67;93.56;101357.31;5180964;28;20032;-77
2023/03/29 04:49:02;;;;;;;4.47;2.05;;;;;;;8.57;94.92;101340.63;5184567;28;20022;-77
2023/03/29 04:51:33;;;;;;;4.57;2.40;;;;;;;8.70;94.09;101351.88;5183373;28;20034;-77
2023/03/29 04:54:05;;;;;;;4.72;2.47;;;;;;;8.63;95.29;101343.63;5180406;28;20492;-77
2023/03/29 04:56:36;;;;;;;4.95;2.20;;;;;;;8.68;94.70;101343.34;5183886;28;20031;-77
2023/03/29 04:59:08;;;;;;;4.95;3.13;;;;;;;8.67;94.64;101336.41;5186222;28;20033;-77
2023/03/29 05:01:39;;;;;;;5.68;2.30;;;;;;;8.65;94.19;101322.66;5186867;28;20026;-76
2023/03/29 05:04:11;;;;;;;5.93;2.45;;;;;;;8.73;94.28;101338.63;5185253;28;20389;-77
2023/03/29 05:06:42;;;;;;;4.40;2.25;;;;;;;8.55;96.64;101334.66;5183885;28;20491;-77
2023/03/29 05:09:13;;;;;;;7.53;2.67;;;;;;;8.64;95.93;101336.66;5181245;28;20664;-76
2023/03/29 05:11:44;;;;;;;4.97;2.90;;;;;;;8.61;96.36;101327.25;5171296;28;20477;-76
2023/03/29 05:14:16;;;;;;;6.57;2.55;;;;;;;8.64;95.93;101328.81;5180390;28;20621;-77
2023/03/29 05:16:48;;;;;;;4.25;2.30;;;;;;;8.65;95.95;101333.09;5188643;28;20110;-77
2023/03/29 05:19:20;;;;;;;4.85;2.78;;;;;;;8.62;96.08;101323.69;5181680;28;20037;-77
2023/03/29 05:21:52;;;;;;;7.40;2.60;;;;;;;8.68;95.91;101331.09;5192028;28;20026;-77
2023/03/29 05:24:23;;;;;;;8.20;2.83;;;;;;;8.72;95.51;101326.50;5186927;28;20448;-77
2023/03/29 05:26:55;;;;;;;6.63;2.90;;;;;;;8.78;95.05;101328.69;5184851;28;20026;-77
2023/03/29 05:29:26;;;;;;;5.80;2.40;;;;;;;8.81;95.37;101336.31;5176433;28;20035;-77
2023/03/29 05:31:58;;;;;;;7.35;2.70;;;;;;;8.86;95.44;101336.81;5184366;28;20026;-77
2023/03/29 05:34:30;;;;;;;4.60;2.22;;;;;;;8.85;95.06;101331.72;5182997;28;20026;-76
2023/03/29 05:37:02;;;;;;;7.83;2.77;;;;;;;8.92;94.24;101346.84;5181682;28;20082;-76
2023/03/29 05:39:33;;;;;;;5.47;3.00;;;;;;;8.93;94.59;101352.91;5178769;28;20035;-75
2023/03/29 05:42:05;;;;;;;6.05;2.78;;;;;;;8.93;95.59;101351.13;5180721;28;20026;-75
2023/03/29 05:44:36;;;;;;;5.30;2.72;;;;;;;8.98;95.44;101353.44;5180889;28;20054;-75
2023/03/29 05:47:07;;;;;;;4.18;2.63;;;;;;;9.05;94.45;101343.38;5186264;28;20501;-75
2023/03/29 05:49:39;;;;;;;5.72;2.50;;;;;;;9.02;94.79;101345.28;5184728;28;20400;-76
2023/03/29 05:52:12;;;;;;;5.28;2.83;;;;;;;8.98;94.72;101335.16;5187042;28;20077;-75
2023/03/29 05:54:43;;;;;;;4.90;3.10;;;;;;;9.13;95.78;101354.13;5189651;28;20066;-76
2023/03/29 05:57:14;;;;;;;7.18;3.10;;;;;;;9.09;95.78;101347.44;5183373;28;20428;-76
2023/03/29 05:59:46;;;;;;;5.75;2.92;;;;;;;8.97;95.23;101339.50;5182325;28;20062;-76
2023/03/29 06:02:18;;;;;;;4.72;2.53;;;;;;;8.94;97.30;101352.81;5182418;28;20023;-77
2023/03/29 06:04:50;;;;;;;7.45;2.92;;;;;;;8.99;97.10;101355.09;5182875;28;20078;-78
2023/03/29 06:07:22;;;;;;;5.10;2.60;;;;;;;9.05;96.20;101349.44;5179655;28;20039;-78
2023/03/29 06:09:54;;;;;;;5.75;3.20;;;;;;;9.09;96.87;101347.44;5185526;28;20381;-77
2023/03/29 06:12:26;;;;;;;8.05;2.97;;;;;;;9.11;96.90;101358.63;5180662;28;20053;-80
2023/03/29 06:15:03;;;;;;;3.93;2.63;;;;;;;9.09;96.67;101347.44;5177543;28;20039;-78
2023/03/29 06:17:35;;;;;;;7.28;2.70;;;;;;;9.15;96.31;101362.69;5189754;28;20028;-78
2023/03/29 06:20:09;;;;;;;8.18;3.28;;;;;;;9.15;97.53;101352.25;5184435;28;20078;-78
2023/03/29 06:22:41;;;;;;;7.85;2.58;;;;;;;9.18;96.60;101349.41;5174677;28;20067;-78
2023/03/29 06:25:14;;;;;;;5.60;2.88;;;;;;;9.19;97.77;101348.47;5182046;28;20031;-77
2023/03/29 06:27:46;;;;;;;4.55;2.72;;;;;;;9.29;96.88;101359.94;5181310;28;20049;-79
2023/03/29 06:30:18;;;;;;;6.35;3.13;;;;;;;9.24;96.91;101349.81;5181378;28;20070;-78
2023/03/29 06:32:49;;;;;;;5.00;2.83;;;;;;;9.33;97.02;101353.56;5183663;28;20039;-79
2023/03/29 06:35:21;;;;;;;4.57;2.55;;;;;;;9.37;96.89;101355.00;5182178;28;20142;-78
2023/03/29 06:37:53;;;;;;;7.07;3.03;;;;;;;9.41;97.39;101348.59;5185516;28;20226;-80
2023/03/29 06:40:24;;;;;;;5.07;3.03;;;;;;;9.41;97.90;101356.44;5179733;28;20031;-77
2023/03/29 06:42:57;;;;;;;5.97;2.88;;;;;;;9.42;98.32;101352.88;5184333;28;20085;-80
2023/03/29 06:45:31;;;;;;;8.23;3.33;;;;;;;9.51;98.92;101343.56;5179304;28;20465;-80
2023/03/29 06:48:03;;;;;;;6.65;2.95;;;;;;;9.49;99.13;101343.66;5181669;28;20122;-80
2023/03/29 06:50:35;;;;;;;4.43;2.90;;;;;;;9.56;97.71;101333.59;5179923;28;20022;-76
2023/03/29 06:53:06;;;;;;;5.65;2.90;;;;;;;9.58;98.49;101333.47;5186083;28;20034;-75
2023/03/29 06:55:37;;;;;;;6.80;2.90;;;;;;;9.72;97.67;101346.38;5183098;28;20023;-76
2023/03/29 06:58:09;;;;;;;6.45;2.65;;;;;;;9.78;97.64;101356.41;5182956;28;20484;-76
2023/03/29 07:00:41;;;;;;;5.30;2.78;;;;;;;9.80;98.61;101356.28;5183986;28;20592;-75
2023/03/29 07:03:18;;;;;;;5.40;2.85;;;;;;;9.85;98.49;101355.00;5179382;28;20502;-75
2023/03/29 07:05:50;;;;;;;6.70;3.40;;;;;;;9.92;97.33;101364.06;5173040;28;20072;-75
2023/03/29 07:08:29;;;;;;;6.65;3.05;;;;;;;9.94;98.10;101359.56;5169282;28;20784;-76
2023/03/29 07:11:01;;;;;;;6.32;3.10;;;;;;;9.94;97.87;101359.56;5179093;28;20041;-76
2023/03/29 07:13:33;;;;;;;6.28;3.47;;;;;;;9.98;98.21;101358.38;5183095;28;20441;-75
2023/03/29 07:16:05;;;;;;;4.22;2.92;;;;;;;10.10;97.03;101363.66;5175059;28;20695;-75
2023/03/29 07:18:40;;;;;;;7.80;3.25;;;;;;;10.13;98.03;101345.09;5175194;28;20476;-76
2023/03/29 07:21:11;;;;;;;6.75;3.35;;;;;;;10.16;97.41;101356.19;5179136;28;20471;-75
2023/03/29 07:23:43;;;;;;;5.88;3.08;;;;;;;10.11;97.40;101357.47;5177521;28;20197;-76
2023/03/29 07:26:15;;;;;;;4.47;2.97;;;;;;;10.12;98.79;101362.59;5180171;28;20026;-76
2023/03/29 07:28:47;;;;;;;7.63;3.53;;;;;;;10.21;98.31;101366.31;5179411;28;20109;-75
2023/03/29 07:31:18;;;;;;;7.63;3.10;;;;;;;10.20;98.53;101370.72;5176772;28;20046;-76
2023/03/29 07:33:52;;;;;;;6.25;3.13;;;;;;;10.26;98.54;101372.06;5179027;28;20042;-76
2023/03/29 07:36:23;;;;;;;;;;;;;;;10.90;94.89;101384.66;5181495;28;20042;-76
2023/03/29 07:38:55;;;;;;;4.65;2.80;;;;;;;10.42;97.61;101393.53;5178712;28;19922;-76
2023/03/29 07:41:27;;;;;;;8.90;3.80;;;;;;;10.42;98.43;101390.09;5176565;28;20031;-76
2023/03/29 07:44:03;;;;;;;4.70;2.78;;;;;;;10.43;98.10;101397.81;5182549;28;20025;-76
2023/03/29 07:46:35;;;;;;;8.15;3.70;;;;;;;10.40;98.63;101402.47;5179308;28;20030;-76
2023/03/29 07:49:07;;;;;;;7.90;3.65;;;;;;;10.44;99.06;101393.41;5176722;28;20065;-76
2023/03/29 07:51:38;;;;;;;6.25;3.60;;;;;;;10.45;99.03;101392.47;5177211;28;20460;-76
2023/03/29 07:54:10;;;;;;;6.50;3.42;;;;;;;10.50;99.70;101390.34;5178553;28;20050;-76
2023/03/29 07:56:42;;;;;;;6.35;3.55;;;;;;;10.55;100.00;101390.00;5179865;28;20041;-76
2023/03/29 07:59:13;;;;;;;8.60;3.30;;;;;;;10.57;100.00;101396.78;5177517;28;20342;-76
2023/03/29 08:01:44;;;;;;;6.90;3.75;;;;;;;10.53;100.00;101374.41;5179496;28;20444;-76
2023/03/29 08:04:16;;;;;;;5.63;3.30;;;;;;;10.68;100.00;101393.34;5172876;28;20425;-76
2023/03/29 08:06:47;;;;;;;7.63;4.00;;;;;;;10.66;100.00;101387.38;5181087;28;20053;-76
2023/03/29 08:09:19;;;;;;;8.65;3.83;;;;;;;10.63;100.00;101379.75;5178245;28;20066;-76
2023/03/29 08:11:50;;;;;;;7.80;4.05;;;;;;;10.65;100.00;101388.34;5178945;28;20082;-76
2023/03/29 08:14:22;;;;;;;7.63;3.70;;;;;;;10.77;100.00;101387.41;5181391;28;20489;-76
2023/03/29 08:16:54;;;;;;;6.60;3.95;;;;;;;10.66;100.00;101395.25;5181123;28;20505;-76
2023/03/29 08:19:26;;;;;;;7.20;4.15;;;;;;;10.74;100.00;101386.81;5176678;28;20053;-76
2023/03/29 08:21:57;;;;;;;6.90;3.85;;;;;;;10.82;100.00;101387.88;5182778;28;20385;-76
2023/03/29 08:24:29;;;;;;;7.32;4.10;;;;;;;10.89;100.00;101386.44;5174026;28;20030;-76
2023/03/29 08:27:00;;;;;;;8.32;4.32;;;;;;;10.96;100.00;101374.53;5181177;28;20022;-76
2023/03/29 08:29:32;;;;;;;6.68;3.90;;;;;;;10.99;100.00;101378.72;5183247;28;20038;-76
2023/03/29 08:32:03;;;;;;;8.50;4.18;;;;;;;11.06;100.00;101379.06;5178493;28;20488;-76
2023/03/29 08:34:35;;;;;;;7.28;3.85;;;;;;;11.08;100.00;101366.66;5181914;28;20038;-76
2023/03/29 08:37:07;;;;;;;9.18;4.00;;;;;;;11.15;100.00;101371.31;5171939;28;20033;-75
2023/03/29 08:39:38;;;;;;;10.25;4.20;;;;;;;11.17;100.00;101377.28;5180494;28;20037;-75
2023/03/29 08:42:28;;;;;;;7.32;4.30;;;;;;;11.39;100.00;101370.31;5181772;28;20026;-77
2023/03/29 08:45:06;;;;;;;9.07;4.45;;;;;;;11.30;100.00;101369.25;5179058;28;20030;-76
2023/03/29 08:47:59;;;;;;;7.15;4.00;;;;;;;11.50;100.00;101377.31;5178178;28;20030;-76
2023/03/29 08:50:43;;;;;;;10.18;5.18;;;;;;;11.66;100.00;101368.09;5179076;28;20030;-77
2023/03/29 08:53:21;;;;;;;9.75;4.30;;;;;;;11.65;100.00;101378.72;5181506;28;20035;-77
2023/03/29 08:55:55;;;;;;;8.75;4.70;;;;;;;11.63;100.00;101375.38;5175853;28;20035;-77
2023/03/29 08:58:32;;;;;;;9.55;4.90;;;;;;;11.65;100.00;101355.09;5180525;28;20385;-77
2023/03/29 09:01:07;;;;;;;9.20;4.88;;;;;;;11.68;100.00;101353.06;5184182;28;20038;-77
2023/03/29 09:03:38;;;;;;;7.78;4.65;;;;;;;11.77;100.00;101367.22;5168481;28;20030;-77
2023/03/29 09:06:11;;;;;;;10.00;5.22;;;;;;;11.81;100.00;101368.63;5177627;28;20030;-77
2023/03/29 09:08:45;;;;;;;8.93;4.82;;;;;;;11.80;100.00;101366.97;5179542;28;20043;-77
2023/03/29 09:11:22;;;;;;;8.73;5.13;;;;;;;11.84;100.00;101365.78;5178460;28;20046;-77
2023/03/29 09:14:09;;;;;;;10.73;4.47;;;;;;;11.89;100.00;101355.75;5181459;28;20512;-77
2023/03/29 09:17:22;;;;;;;9.20;3.95;;;;;;;11.86;100.00;101368.31;5180131;28;20130;-77
2023/03/29 09:20:02;;;;;;;6.45;4.25;;;;;;;11.87;100.00;101373.44;5175375;28;20070;-77
2023/03/29 09:22:42;;;;;;;11.85;6.10;;;;;;;11.69;100.00;101374.88;5174974;28;20041;-76
2023/03/29 09:25:35;;;;;;;6.80;4.60;;;;;;;11.66;100.00;101364.63;5179741;28;20042;-76
2023/03/29 09:28:18;;;;;;;7.63;4.40;;;;;;;11.94;100.00;101365.88;5182092;28;20501;-76
2023/03/29 09:31:02;;;;;;;7.88;4.50;;;;;;;11.92;100.00;101363.38;5183255;28;20041;-77
2023/03/29 09:33:42;;;;;;;8.18;4.32;;;;;;;11.98;100.00;101374.34;5178748;28;21030;-76
2023/03/29 09:36:38;;;;;;;11.85;5.10;;;;;;;12.13;100.00;101375.72;5174284;28;20045;-77
2023/03/29 09:39:13;;;;;;;9.93;4.72;;;;;;;12.17;100.00;101379.75;5173747;28;20117;-76
2023/03/29 09:42:07;;;;;;;7.40;4.50;;;;;;;12.16;100.00;101368.41;5181531;28;20085;-76
2023/03/29 09:44:56;;;;;;;8.20;5.38;;;;;;;12.33;100.00;101369.63;5184025;28;20121;-77
2023/03/29 09:47:34;;;;;;;7.93;4.85;;;;;;;12.12;100.00;101360.88;5180886;28;20018;-77
2023/03/29 09:50:20;;;;;;;7.30;4.47;;;;;;;12.15;100.00;101365.88;5179533;28;20061;-77
2023/03/29 09:52:52;;;;;;;6.82;4.47;;;;;;;11.99;100.00;101368.13;5177258;28;20035;-76
2023/03/29 09:55:28;;;;;;;12.07;5.38;;;;;;;12.12;100.00;101358.25;5176648;28;20530;-76
2023/03/29 09:58:01;;;;;;;9.05;4.93;;;;;;;12.04;100.00;101358.91;5176853;28;20374;-76
2023/03/29 10:00:33;;;;;;;8.77;5.18;;;;;;;12.01;100.00;101379.31;5179656;28;20037;-77
2023/03/29 10:03:04;;;;;;;9.45;5.50;;;;;;;12.01;100.00;101371.44;5180089;28;20563;-77
2023/03/29 10:05:36;;;;;;;7.95;4.90;;;;;;;12.10;100.00;101360.19;5183801;28;20227;-78
2023/03/29 10:08:29;;;;;;;9.40;5.35;;;;;;;12.59;100.00;101367.41;5183557;28;20370;-78
2023/03/29 10:11:07;;;;;;;8.65;5.43;;;;;;;12.57;100.00;101371.13;5182643;28;20092;-77
2023/03/29 10:13:45;;;;;;;8.15;4.80;;;;;;;12.63;100.00;101366.19;5182341;28;20506;-78
2023/03/29 10:16:22;;;;;;;8.73;4.88;;;;;;;12.73;100.00;101363.63;5196984;28;20085;-77
2023/03/29 10:18:53;;;;;;;7.30;4.85;;;;;;;12.71;100.00;101375.22;5183833;28;20037;-77
2023/03/29 10:21:28;;;;;;;6.93;4.95;;;;;;;12.75;100.00;101372.19;5182148;28;20489;-77
2023/03/29 10:23:59;;;;;;;7.88;4.90;;;;;;;12.75;100.00;101366.09;5181580;28;20040;-78
2023/03/29 10:26:32;;;;;;;7.05;5.03;;;;;;;12.79;100.00;101352.56;5180907;28;20097;-77
2023/03/29 10:29:07;;;;;;;9.30;4.88;;;;;;;12.80;100.00;101353.38;5183862;28;20047;-77
2023/03/29 10:31:41;;;;;;;8.18;4.90;;;;;;;12.91;100.00;101343.59;5181576;28;20489;-77
2023/03/29 10:34:14;;;;;;;7.03;4.72;;;;;;;13.15;100.00;101345.09;5179333;28;20097;-78
2023/03/29 10:36:56;;;;;;;6.28;4.70;;;;;;;13.36;100.00;101339.75;5181197;28;20109;-77
2023/03/29 10:39:32;;;;;;;9.18;4.25;;;;;;;13.45;100.00;101338.94;5182984;28;20499;-77
2023/03/29 10:42:05;;;;;;;7.28;4.70;;;;;;;13.36;100.00;101329.22;5179396;28;20417;-77
2023/03/29 10:44:36;;;;;;;9.18;4.55;;;;;;;13.64;100.00;101332.88;5182212;28;20027;-78
2023/03/29 10:47:16;;;;;;;7.22;4.50;;;;;;;13.86;100.00;101329.97;5182621;28;20498;-77
2023/03/29 10:49:57;;;;;;;7.35;4.32;;;;;;;14.03;100.00;101320.50;5181019;28;20504;-77
2023/03/29 10:52:29;;;;;;;9.30;4.53;;;;;;;13.91;100.00;101303.19;5179102;28;20026;-77
2023/03/29 10:55:01;;;;;;;6.43;4.40;;;;;;;14.24;100.00;101314.22;5181669;28;20109;-77
2023/03/29 10:57:59;;;;;;;7.68;5.15;;;;;;;14.42;100.00;101288.78;5182777;28;20062;-77
2023/03/29 11:00:39;;;;;;;5.75;4.25;;;;;;;14.67;100.00;101308.41;5180630;28;20030;-77
2023/03/29 11:03:22;;;;;;;7.75;4.43;;;;;;;14.75;100.00;101297.16;5180354;28;20069;-77
2023/03/29 11:06:01;;;;;;;8.90;4.17;;;;;;;14.82;100.00;101288.50;5179719;28;20481;-77
2023/03/29 11:08:45;;;;;;;6.30;4.30;;;;;;;14.89;100.00;101282.63;5181224;28;20062;-77
2023/03/29 11:11:25;;;;;;;7.15;4.28;;;;;;;15.19;100.00;101286.72;5178766;28;20117;-78
2023/03/29 11:14:26;;;;;;;6.40;4.07;;;;;;;15.42;100.00;101287.97;5181849;28;20950;-77
2023/03/29 11:17:24;;;;;;;6.97;4.30;;;;;;;15.63;98.14;101290.31;5180213;28;20841;-77
2023/03/29 11:20:16;;;;;;;5.82;4.30;;;;;;;15.57;99.87;101281.19;5181737;28;20049;-77
2023/03/29 11:22:59;;;;;;;8.27;4.32;;;;;;;15.60;96.74;101290.59;5178713;28;20027;-77
2023/03/29 11:25:33;;;;;;;;;;;;;;;16.08;95.79;101285.88;5178214;28;20050;-77
2023/03/29 11:28:10;;;;;;;8.25;4.15;;;;;;;15.50;95.55;101290.69;5179634;28;20356;-77
2023/03/29 11:30:50;;;;;;;8.35;4.50;;;;;;;15.71;98.43;101302.78;5178992;28;20037;-77
2023/03/29 11:33:33;;;;;;;6.47;4.07;;;;;;;15.58;97.29;101298.69;5179109;28;20149;-77
2023/03/29 11:36:13;;;;;;;10.70;4.43;;;;;;;15.50;95.37;101303.06;5178671;28;20385;-78
2023/03/29 11:38:54;;;;;;;8.68;4.43;;;;;;;15.75;97.54;101291.75;5180686;28;20092;-78
2023/03/29 11:41:31;;;;;;;8.38;4.72;;;;;;;15.68;95.33;101282.81;5193169;28;20038;-77
2023/03/29 11:44:18;;;;;;;6.75;4.50;;;;;;;16.00;94.81;101287.47;5181855;28;20027;-77
2023/03/29 11:47:06;;;;;;;8.15;4.50;;;;;;;16.23;92.92;101289.63;5181726;28;20034;-77
2023/03/29 11:49:42;;;;;;;6.35;4.15;;;;;;;16.29;91.22;101291.66;5181712;28;20519;-77
2023/03/29 11:52:28;;;;;;;7.30;4.57;;;;;;;16.35;90.67;101290.19;5181675;28;20033;-77
2023/03/29 11:55:14;;;;;;;8.00;4.20;;;;;;;16.35;91.54;101279.59;5178548;28;20039;-77
2023/03/29 11:58:07;;;;;;;7.38;4.22;;;;;;;16.38;89.23;101276.66;5183667;28;20030;-77
2023/03/29 12:01:03;;;;;;;5.20;3.70;;;;;;;16.56;87.07;101266.00;5180600;28;20476;-77
2023/03/29 12:03:42;;;;;;;8.25;4.03;;;;;;;16.50;87.20;101280.66;5180452;28;20504;-78
2023/03/29 12:06:46;;;;;;;8.80;3.63;;;;;;;16.57;88.58;101286.97;5175695;28;20031;-79